createdAt,value
2018-04-14T00:00:53.311Z,30.50
2018-04-14T00:01:53.301Z,26.80
2018-04-14T00:02:53.294Z,26.30
2018-04-14T00:03:53.290Z,22.70
2018-04-14T00:04:53.287Z,23.20
2018-04-14T00:05:53.294Z,21.80
2018-04-14T00:06:53.292Z,22.20
2018-04-14T00:07:53.291Z,22.50
2018-04-14T00:08:53.285Z,23.80
2018-04-14T00:09:53.276Z,24.70
2018-04-14T00:10:53.266Z,24.80
2018-04-14T00:11:53.264Z,24.90
2018-04-14T00:12:53.262Z,26.90
2018-04-14T00:13:53.269Z,30.10
2018-04-14T00:14:53.255Z,31.80
2018-04-14T00:15:53.270Z,32.50
2018-04-14T00:16:53.246Z,33.20
2018-04-14T00:17:53.242Z,32.40
2018-04-14T00:18:53.239Z,33.80
2018-04-14T00:19:53.248Z,32.20
2018-04-14T00:20:53.233Z,32.80
2018-04-14T00:21:53.228Z,32.00
2018-04-14T00:22:53.235Z,32.50
2018-04-14T00:23:53.219Z,31.70
2018-04-14T00:24:53.219Z,31.20
2018-04-14T00:25:53.233Z,30.50
2018-04-14T00:26:53.222Z,30.40
2018-04-14T00:27:53.221Z,29.00
2018-04-14T00:28:53.205Z,28.50
2018-04-14T00:29:53.211Z,28.20
2018-04-14T00:30:53.197Z,28.10
2018-04-14T00:31:53.205Z,27.50
2018-04-14T00:32:53.191Z,25.40
2018-04-14T00:33:53.190Z,27.10
2018-04-14T00:34:53.185Z,27.50
2018-04-14T00:35:53.193Z,26.60
2018-04-14T00:36:53.188Z,27.10
2018-04-14T00:37:53.185Z,27.80
2018-04-14T00:38:53.184Z,27.20
2018-04-14T00:39:53.164Z,26.60
2018-04-14T00:40:53.162Z,25.90
2018-04-14T00:41:53.173Z,25.50
2018-04-14T00:42:53.157Z,26.30
2018-04-14T00:43:53.153Z,24.90
2018-04-14T00:44:53.185Z,24.70
2018-04-14T00:45:53.150Z,24.50
2018-04-14T00:46:53.145Z,25.90
2018-04-14T00:47:53.138Z,26.80
2018-04-14T00:48:53.188Z,25.90
2018-04-14T00:49:53.160Z,25.40
2018-04-14T00:50:53.135Z,25.90
2018-04-14T00:51:53.138Z,30.50
2018-04-14T00:52:53.121Z,31.90
2018-04-14T00:53:53.132Z,33.50
2018-04-14T00:54:53.126Z,32.70
2018-04-14T00:55:53.114Z,33.50
2018-04-14T00:56:53.124Z,33.40
2018-04-14T00:57:53.110Z,31.90
2018-04-14T00:58:53.103Z,33.60
2018-04-14T00:59:53.113Z,31.30
2018-04-14T01:00:53.097Z,30.80
2018-04-14T01:01:53.097Z,31.20
2018-04-14T01:02:53.092Z,30.80
2018-04-14T01:03:53.110Z,31.20
2018-04-14T01:04:53.082Z,33.60
2018-04-14T01:05:53.080Z,28.00
2018-04-14T01:06:53.077Z,26.20
2018-04-14T01:07:53.099Z,25.60
2018-04-14T01:08:53.074Z,26.70
2018-04-14T01:09:53.084Z,23.60
2018-04-14T01:10:53.068Z,25.50
2018-04-14T01:11:53.062Z,25.40
2018-04-14T01:12:53.066Z,26.20
2018-04-14T01:13:53.060Z,28.40
2018-04-14T01:14:53.054Z,27.10
2018-04-14T01:15:53.053Z,27.20
2018-04-14T01:16:53.049Z,27.20
2018-04-14T01:17:53.056Z,26.90
2018-04-14T01:18:53.040Z,26.90
2018-04-14T01:19:53.040Z,27.90
2018-04-14T01:20:53.034Z,25.40
2018-04-14T01:21:53.047Z,25.50
2018-04-14T01:22:53.027Z,25.70
2018-04-14T01:23:53.025Z,25.40
2018-04-14T01:24:53.032Z,24.20
2018-04-14T01:25:53.020Z,23.90
2018-04-14T01:26:53.027Z,23.10
2018-04-14T01:27:53.026Z,23.40
2018-04-14T01:28:53.010Z,22.70
2018-04-14T01:29:53.018Z,21.80
2018-04-14T01:30:53.012Z,20.40
2018-04-14T01:31:53.011Z,23.00
2018-04-14T01:32:53.001Z,22.00
2018-04-14T01:33:52.992Z,26.80
2018-04-14T01:34:52.990Z,25.70
2018-04-14T01:35:52.991Z,21.90
2018-04-14T01:36:52.995Z,21.50
2018-04-14T01:37:52.981Z,21.80
2018-04-14T01:38:52.982Z,25.10
2018-04-14T01:39:52.992Z,23.00
2018-04-14T01:40:52.971Z,25.30
2018-04-14T01:41:52.968Z,22.20
2018-04-14T01:42:52.966Z,23.10
2018-04-14T01:43:52.972Z,24.20
2018-04-14T01:44:52.981Z,22.70
2018-04-14T01:45:52.980Z,23.70
2018-04-14T01:46:52.963Z,25.50
2018-04-14T01:47:52.953Z,24.10
2018-04-14T01:48:52.951Z,25.40
2018-04-14T01:49:52.950Z,24.70
2018-04-14T01:50:52.957Z,24.30
2018-04-14T01:51:52.950Z,24.10
2018-04-14T01:52:52.951Z,25.70
2018-04-14T01:53:52.941Z,23.90
2018-04-14T01:54:52.944Z,25.30
2018-04-14T01:55:52.932Z,25.90
2018-04-14T01:56:52.937Z,25.30
2018-04-14T01:57:52.935Z,24.50
2018-04-14T01:58:52.916Z,24.20
2018-04-14T01:59:52.943Z,22.70
2018-04-14T02:00:52.921Z,23.30
2018-04-14T02:01:52.920Z,22.30
2018-04-14T02:02:52.908Z,23.00
2018-04-14T02:03:52.915Z,22.40
2018-04-14T02:04:52.900Z,22.10
2018-04-14T02:05:52.913Z,20.50
2018-04-14T02:06:52.895Z,20.20
2018-04-14T02:07:52.915Z,20.80
2018-04-14T02:08:52.895Z,20.40
2018-04-14T02:09:52.893Z,19.60
2018-04-14T02:10:52.884Z,19.90
2018-04-14T02:11:52.887Z,18.10
2018-04-14T02:12:52.901Z,19.20
2018-04-14T02:13:52.871Z,20.80
2018-04-14T02:14:52.868Z,21.30
2018-04-14T02:15:52.881Z,20.90
2018-04-14T02:16:52.876Z,21.10
2018-04-14T02:17:52.871Z,20.50
2018-04-14T02:18:52.868Z,20.40
2018-04-14T02:19:52.865Z,20.40
2018-04-14T02:20:52.861Z,20.60
2018-04-14T02:21:52.847Z,23.10
2018-04-14T02:22:52.864Z,26.50
2018-04-14T02:23:52.839Z,26.80
2018-04-14T02:24:52.836Z,27.70
2018-04-14T02:25:52.854Z,27.40
2018-04-14T02:26:52.827Z,28.90
2018-04-14T02:27:52.831Z,29.10
2018-04-14T02:28:52.835Z,28.50
2018-04-14T02:29:52.832Z,26.30
2018-04-14T02:30:52.829Z,27.40
2018-04-14T02:31:52.829Z,27.20
2018-04-14T02:32:52.826Z,26.30
2018-04-14T02:33:52.804Z,28.20
2018-04-14T02:34:52.815Z,26.50
2018-04-14T02:35:52.811Z,25.70
2018-04-14T02:36:52.816Z,26.30
2018-04-14T02:37:52.797Z,25.30
2018-04-14T02:38:52.801Z,23.30
2018-04-14T02:39:52.809Z,24.20
2018-04-14T02:40:52.782Z,24.50
2018-04-14T02:44:36.824Z,24.90
2018-04-14T02:45:36.838Z,24.30
2018-04-14T02:46:36.807Z,24.00
2018-04-14T02:47:36.805Z,24.40
2018-04-14T02:48:36.798Z,23.00
2018-04-14T02:49:36.798Z,23.50
2018-04-14T02:50:36.999Z,24.10
2018-04-14T02:51:36.804Z,21.20
2018-04-14T02:52:36.789Z,22.20
2018-04-14T02:53:36.803Z,27.10
2018-04-14T02:54:36.792Z,25.20
2018-04-14T02:55:36.777Z,27.00
2018-04-14T02:56:36.795Z,26.10
2018-04-14T02:57:36.776Z,26.70
2018-04-14T02:58:36.769Z,24.90
2018-04-14T02:59:36.767Z,23.30
2018-04-14T03:00:36.766Z,24.00
2018-04-14T03:01:36.764Z,22.70
2018-04-14T03:02:36.772Z,23.20
2018-04-14T03:03:36.756Z,25.10
2018-04-14T03:04:36.762Z,24.50
2018-04-14T03:05:36.748Z,23.40
2018-04-14T03:06:36.746Z,22.10
2018-04-14T03:07:36.742Z,22.40
2018-04-14T03:08:36.740Z,23.30
2018-04-14T03:09:36.737Z,20.70
2018-04-14T03:10:36.733Z,19.40
2018-04-14T03:11:36.731Z,18.50
2018-04-14T03:12:36.730Z,19.50
2018-04-14T03:13:36.724Z,20.10
2018-04-14T03:14:36.722Z,21.60
2018-04-14T03:15:36.725Z,22.60
2018-04-14T03:16:36.725Z,23.80
2018-04-14T03:17:36.714Z,23.70
2018-04-14T03:18:36.713Z,24.00
2018-04-14T03:19:36.705Z,24.10
2018-04-14T03:20:36.715Z,22.60
2018-04-14T03:21:36.704Z,22.90
2018-04-14T03:22:36.696Z,22.10
2018-04-14T03:23:36.692Z,19.60
2018-04-14T03:24:36.693Z,20.40
2018-04-14T03:25:36.689Z,20.90
2018-04-14T03:26:36.687Z,20.90
2018-04-14T03:27:36.707Z,20.50
2018-04-14T03:28:36.678Z,21.00
2018-04-14T03:29:36.676Z,20.30
2018-04-14T03:30:36.680Z,21.00
2018-04-14T03:31:36.873Z,21.20
2018-04-14T03:32:36.700Z,20.10
2018-04-14T03:33:36.662Z,20.70
2018-04-14T03:34:36.683Z,19.80
2018-04-14T03:35:36.667Z,19.30
2018-04-14T03:36:36.652Z,19.90
2018-04-14T03:37:36.664Z,18.70
2018-04-14T03:38:36.645Z,20.10
2018-04-14T03:39:36.640Z,21.40
2018-04-14T03:40:36.639Z,20.80
2018-04-14T03:41:36.634Z,21.30
2018-04-14T03:42:36.632Z,20.60
2018-04-14T03:43:36.639Z,20.80
2018-04-14T03:44:36.630Z,22.10
2018-04-14T03:45:36.623Z,22.50
2018-04-14T03:46:36.641Z,21.80
2018-04-14T03:47:36.615Z,23.70
2018-04-14T03:48:36.611Z,25.00
2018-04-14T03:49:36.608Z,25.20
2018-04-14T03:50:36.602Z,24.70
2018-04-14T03:51:36.612Z,25.70
2018-04-14T03:52:36.602Z,23.20
2018-04-14T03:53:36.595Z,22.00
2018-04-14T03:54:36.589Z,22.80
2018-04-14T03:55:36.585Z,21.50
2018-04-14T03:56:36.582Z,21.00
2018-04-14T03:57:36.581Z,21.60
2018-04-14T03:58:36.574Z,21.40
2018-04-14T03:59:36.570Z,19.70
2018-04-14T04:00:36.571Z,19.80
2018-04-14T04:01:36.769Z,20.70
2018-04-14T04:02:36.560Z,19.50
2018-04-14T04:03:36.557Z,18.00
2018-04-14T04:04:36.558Z,19.40
2018-04-14T04:05:36.549Z,18.10
2018-04-14T04:06:36.547Z,18.60
2018-04-14T04:07:36.542Z,17.70
2018-04-14T04:08:36.543Z,17.20
2018-04-14T04:09:36.536Z,17.60
2018-04-14T04:10:36.544Z,16.70
2018-04-14T04:11:36.549Z,17.80
2018-04-14T04:12:36.526Z,19.10
2018-04-14T04:13:36.522Z,20.50
2018-04-14T04:14:36.528Z,20.90
2018-04-14T04:15:36.560Z,23.00
2018-04-14T04:16:36.512Z,22.50
2018-04-14T04:17:36.509Z,24.00
2018-04-14T04:18:36.503Z,25.40
2018-04-14T04:19:36.500Z,26.20
2018-04-14T04:20:36.496Z,26.00
2018-04-14T04:21:36.493Z,26.50
2018-04-14T04:22:36.492Z,26.60
2018-04-14T04:23:36.486Z,27.30
2018-04-14T04:24:36.486Z,27.20
2018-04-14T04:25:36.478Z,27.60
2018-04-14T04:26:36.475Z,26.20
2018-04-14T04:27:36.470Z,25.90
2018-04-14T04:28:36.477Z,26.90
2018-04-14T04:29:36.467Z,26.80
2018-04-14T04:30:36.460Z,26.40
2018-04-14T04:31:36.455Z,26.20
2018-04-14T04:32:36.454Z,27.90
2018-04-14T04:33:36.466Z,27.20
2018-04-14T04:34:36.461Z,27.80
2018-04-14T04:35:36.462Z,27.80
2018-04-14T04:36:36.440Z,26.90
2018-04-14T04:37:36.437Z,27.30
2018-04-14T04:38:36.433Z,26.00
2018-04-14T04:39:36.429Z,24.50
2018-04-14T04:40:36.427Z,24.10
2018-04-14T04:41:36.426Z,22.50
2018-04-14T04:42:36.423Z,22.90
2018-04-14T04:43:36.416Z,24.70
2018-04-14T04:44:36.417Z,25.10
2018-04-14T04:45:36.427Z,24.20
2018-04-14T04:46:36.415Z,26.60
2018-04-14T04:47:36.406Z,27.00
2018-04-14T04:48:36.398Z,26.60
2018-04-14T04:49:36.401Z,25.80
2018-04-14T04:50:36.394Z,24.90
2018-04-14T04:51:36.433Z,26.30
2018-04-14T04:52:36.388Z,25.50
2018-04-14T04:53:36.407Z,24.90
2018-04-14T04:54:36.381Z,23.90
2018-04-14T04:55:36.378Z,24.10
2018-04-14T04:56:36.386Z,24.80
2018-04-14T04:57:36.371Z,24.20
2018-04-14T04:58:36.370Z,25.10
2018-04-14T04:59:36.365Z,26.10
2018-04-14T05:00:36.360Z,25.10
2018-04-14T05:01:36.381Z,26.20
2018-04-14T05:02:36.366Z,27.40
2018-04-14T05:03:36.350Z,27.30
2018-04-14T05:04:36.344Z,26.60
2018-04-14T05:05:36.548Z,27.10
2018-04-14T05:06:36.553Z,26.60
2018-04-14T05:07:36.345Z,25.10
2018-04-14T05:08:36.348Z,25.80
2018-04-14T05:09:36.331Z,23.50
2018-04-14T05:10:36.342Z,20.70
2018-04-14T05:11:36.333Z,22.50
2018-04-14T05:12:36.523Z,23.00
2018-04-14T05:13:36.319Z,24.60
2018-04-14T05:14:36.312Z,23.60
2018-04-14T05:15:36.310Z,25.00
2018-04-14T05:16:36.511Z,23.60
2018-04-14T05:17:36.509Z,24.80
2018-04-14T05:18:36.308Z,23.10
2018-04-14T05:19:36.505Z,21.80
2018-04-14T05:20:36.510Z,19.80
2018-04-14T05:21:36.290Z,20.20
2018-04-14T05:22:36.307Z,21.50
2018-04-14T05:23:36.282Z,25.00
2018-04-14T05:24:36.281Z,23.70
2018-04-14T05:25:36.278Z,22.50
2018-04-14T05:26:36.289Z,23.00
2018-04-14T05:27:36.271Z,22.70
2018-04-14T05:28:36.282Z,19.80
2018-04-14T05:29:36.283Z,21.70
2018-04-14T05:30:36.260Z,20.60
2018-04-14T05:31:36.260Z,18.90
2018-04-14T05:32:36.265Z,20.70
2018-04-14T05:33:36.250Z,21.70
2018-04-14T05:34:36.250Z,22.80
2018-04-14T05:35:36.254Z,24.00
2018-04-14T05:36:36.256Z,23.50
2018-04-14T05:37:36.241Z,24.50
2018-04-14T05:38:36.237Z,24.50
2018-04-14T05:39:36.231Z,24.10
2018-04-14T05:40:36.232Z,22.60
2018-04-14T05:41:36.229Z,22.80
2018-04-14T05:42:36.222Z,23.30
2018-04-14T05:43:36.221Z,23.80
2018-04-14T05:44:36.216Z,22.80
2018-04-14T05:45:36.213Z,22.00
2018-04-14T05:46:36.223Z,22.40
2018-04-14T05:47:36.207Z,20.20
2018-04-14T05:48:36.210Z,21.10
2018-04-14T05:49:36.202Z,21.40
2018-04-14T05:50:36.400Z,20.40
2018-04-14T05:51:36.204Z,20.20
2018-04-14T05:52:36.197Z,18.90
2018-04-14T05:53:36.189Z,18.50
2018-04-14T05:54:36.187Z,18.30
2018-04-14T05:55:36.187Z,20.00
2018-04-14T05:56:36.183Z,19.50
2018-04-14T05:57:36.197Z,19.60
2018-04-14T05:58:36.183Z,19.00
2018-04-14T05:59:36.171Z,20.20
2018-04-14T06:00:36.179Z,20.70
2018-04-14T06:01:36.179Z,20.10
2018-04-14T06:02:36.200Z,19.80
2018-04-14T06:03:36.172Z,18.80
2018-04-14T06:04:36.157Z,19.10
2018-04-14T06:05:36.191Z,20.80
2018-04-14T06:06:36.186Z,21.30
2018-04-14T06:07:36.163Z,20.70
2018-04-14T06:08:36.158Z,20.80
2018-04-14T06:09:36.166Z,20.60
2018-04-14T06:10:36.178Z,19.90
2018-04-14T06:11:36.208Z,20.20
2018-04-14T06:12:36.156Z,19.60
2018-04-14T06:13:36.142Z,20.00
2018-04-14T06:14:36.128Z,19.60
2018-04-14T06:15:36.158Z,20.10
2018-04-14T06:16:36.121Z,19.70
2018-04-14T06:17:36.116Z,20.10
2018-04-14T06:18:36.114Z,19.80
2018-04-14T06:19:36.150Z,20.10
2018-04-14T06:20:36.123Z,20.60
2018-04-14T06:21:36.106Z,20.80
2018-04-14T06:22:36.114Z,20.70
2018-04-14T06:23:36.100Z,21.30
2018-04-14T06:24:36.094Z,21.50
2018-04-14T06:25:36.096Z,21.10
2018-04-14T06:26:36.089Z,21.50
2018-04-14T06:27:36.094Z,20.70
2018-04-14T06:28:36.097Z,20.00
2018-04-14T06:29:36.082Z,21.90
2018-04-14T06:30:36.078Z,22.10
2018-04-14T06:31:36.076Z,21.50
2018-04-14T06:32:36.146Z,21.40
2018-04-14T06:33:36.080Z,19.30
2018-04-14T06:34:36.069Z,19.30
2018-04-14T06:35:36.063Z,20.90
2018-04-14T06:36:36.080Z,21.10
2018-04-14T06:37:36.058Z,19.30
2018-04-14T06:38:36.053Z,19.50
2018-04-14T06:39:36.050Z,18.30
2018-04-14T06:40:36.251Z,19.20
2018-04-14T06:41:36.045Z,20.50
2018-04-14T06:42:36.041Z,23.60
2018-04-14T06:43:36.041Z,22.30
2018-04-14T06:44:36.038Z,21.30
2018-04-14T06:45:36.035Z,21.90
2018-04-14T06:46:36.250Z,24.20
2018-04-14T06:47:36.029Z,25.30
2018-04-14T06:48:36.026Z,25.30
2018-04-14T06:49:36.229Z,24.10
2018-04-14T06:50:36.021Z,23.80
2018-04-14T06:51:36.021Z,22.00
2018-04-14T06:52:36.028Z,23.90
2018-04-14T06:53:36.016Z,23.20
2018-04-14T06:54:36.022Z,25.60
2018-04-14T06:55:36.013Z,26.00
2018-04-14T06:56:36.030Z,25.20
2018-04-14T06:57:36.018Z,27.30
2018-04-14T06:58:36.005Z,27.50
2018-04-14T06:59:35.999Z,24.40
2018-04-14T07:00:36.216Z,23.80
2018-04-14T07:01:36.200Z,25.60
2018-04-14T07:02:35.991Z,24.90
2018-04-14T07:03:35.994Z,24.80
2018-04-14T07:04:36.041Z,24.40
2018-04-14T07:05:35.999Z,24.20
2018-04-14T07:06:35.983Z,25.80
2018-04-14T07:07:35.992Z,24.80
2018-04-14T07:08:35.978Z,26.90
2018-04-14T07:09:35.990Z,27.00
2018-04-14T07:10:35.973Z,26.70
2018-04-14T07:11:35.995Z,26.70
2018-04-14T07:12:36.187Z,26.50
2018-04-14T07:13:35.984Z,27.20
2018-04-14T07:14:35.982Z,27.70
2018-04-14T07:15:35.992Z,26.20
2018-04-14T07:16:35.963Z,24.00
2018-04-14T07:17:35.964Z,25.40
2018-04-14T07:18:35.969Z,26.00
2018-04-14T07:19:35.952Z,26.40
2018-04-14T07:20:35.983Z,28.00
2018-04-14T07:21:35.954Z,28.30
2018-04-14T07:22:35.953Z,28.10
2018-04-14T07:23:35.945Z,27.70
2018-04-14T07:24:35.954Z,28.90
2018-04-14T07:25:35.945Z,29.60
2018-04-14T07:26:35.956Z,30.50
2018-04-14T07:27:35.945Z,30.70
2018-04-14T07:28:35.949Z,31.00
2018-04-14T07:29:35.956Z,31.40
2018-04-14T07:30:35.934Z,32.80
2018-04-14T07:31:35.936Z,34.70
2018-04-14T07:32:36.138Z,33.70
2018-04-14T07:33:36.145Z,34.20
2018-04-14T07:34:35.940Z,32.60
2018-04-14T07:35:36.141Z,33.50
2018-04-14T07:36:36.161Z,34.70
2018-04-14T07:37:35.951Z,38.10
2018-04-14T07:38:35.924Z,35.60
2018-04-14T07:39:35.928Z,35.60
2018-04-14T07:40:35.921Z,39.60
2018-04-14T07:41:35.945Z,38.40
2018-04-14T07:42:35.921Z,38.20
2018-04-14T07:43:35.928Z,39.20
2018-04-14T07:44:35.923Z,43.60
2018-04-14T07:45:35.927Z,45.60
2018-04-14T07:46:36.120Z,46.80
2018-04-14T07:47:36.118Z,44.10
2018-04-14T07:48:35.910Z,44.60
2018-04-14T07:49:35.932Z,44.00
2018-04-14T07:50:35.906Z,45.20
2018-04-14T07:51:35.957Z,46.70
2018-04-14T07:52:35.908Z,48.40
2018-04-14T07:53:36.111Z,48.00
2018-04-14T07:54:35.903Z,49.50
2018-04-14T07:55:35.928Z,51.40
2018-04-14T07:56:35.910Z,50.00
2018-04-14T07:57:35.914Z,52.80
2018-04-14T07:58:35.900Z,55.00
2018-04-14T07:59:35.910Z,56.50
2018-04-14T08:00:36.100Z,58.10
2018-04-14T08:01:35.909Z,59.10
2018-04-14T08:02:35.896Z,56.90
2018-04-14T08:03:35.921Z,58.60
2018-04-14T08:04:35.890Z,60.20
2018-04-14T08:05:35.903Z,59.50
2018-04-14T08:06:35.893Z,56.00
2018-04-14T08:07:35.887Z,57.70
2018-04-14T08:08:35.890Z,54.90
2018-04-14T08:09:35.893Z,56.30
2018-04-14T08:10:35.884Z,58.50
2018-04-14T08:11:35.936Z,58.70
2018-04-14T08:12:35.884Z,60.10
2018-04-14T08:13:36.099Z,61.60
2018-04-14T08:14:35.894Z,60.00
2018-04-14T08:15:35.882Z,62.20
2018-04-14T08:16:35.897Z,62.20
2018-04-14T08:17:36.098Z,62.40
2018-04-14T08:18:35.914Z,62.90
2018-04-14T08:19:35.882Z,60.80
2018-04-14T08:20:35.892Z,63.90
2018-04-14T08:21:35.909Z,64.60
2018-04-14T08:22:35.889Z,65.60
2018-04-14T08:23:36.095Z,63.30
2018-04-14T08:24:35.877Z,65.10
2018-04-14T08:25:36.089Z,68.70
2018-04-14T08:26:35.882Z,63.00
2018-04-14T08:27:35.875Z,65.30
2018-04-14T08:28:35.881Z,62.40
2018-04-14T08:29:35.877Z,60.90
2018-04-14T08:30:35.886Z,62.30
2018-04-14T08:31:35.870Z,62.20
2018-04-14T08:32:35.870Z,61.60
2018-04-14T08:33:35.867Z,60.40
2018-04-14T08:34:35.865Z,65.30
2018-04-14T08:35:35.864Z,66.50
2018-04-14T08:36:36.070Z,63.80
2018-04-14T08:37:35.861Z,63.20
2018-04-14T08:38:35.862Z,61.40
2018-04-14T08:39:35.871Z,61.60
2018-04-14T08:40:36.063Z,64.10
2018-04-14T08:41:35.859Z,65.80
2018-04-14T08:42:35.858Z,63.80
2018-04-14T08:43:35.854Z,62.50
2018-04-14T08:44:35.850Z,66.10
2018-04-14T08:45:35.853Z,65.80
2018-04-14T08:46:35.847Z,66.60
2018-04-14T08:47:35.846Z,65.40
2018-04-14T08:48:35.846Z,64.20
2018-04-14T08:49:35.857Z,66.10
2018-04-14T08:50:35.842Z,65.20
2018-04-14T08:51:35.843Z,65.10
2018-04-14T08:52:35.840Z,63.80
2018-04-14T08:53:35.838Z,64.00
2018-04-14T08:54:35.845Z,65.10
2018-04-14T08:55:35.834Z,66.50
2018-04-14T08:56:35.835Z,66.00
2018-04-14T08:57:35.830Z,62.90
2018-04-14T08:58:35.830Z,65.30
2018-04-14T08:59:35.827Z,66.80
2018-04-14T09:00:35.828Z,71.40
2018-04-14T09:01:35.843Z,68.90
2018-04-14T09:02:36.031Z,70.70
2018-04-14T09:03:35.821Z,69.00
2018-04-14T09:04:35.832Z,68.20
2018-04-14T09:05:35.833Z,67.20
2018-04-14T09:06:35.838Z,66.60
2018-04-14T09:07:35.819Z,68.10
2018-04-14T09:08:35.815Z,68.00
2018-04-14T09:09:35.815Z,67.50
2018-04-14T09:10:35.812Z,67.30
2018-04-14T09:11:35.811Z,65.10
2018-04-14T09:12:35.808Z,64.70
2018-04-14T09:13:35.829Z,66.90
2018-04-14T09:14:35.829Z,66.10
2018-04-14T09:15:35.805Z,66.70
2018-04-14T09:16:36.011Z,66.00
2018-04-14T09:17:35.815Z,66.20
2018-04-14T09:18:35.800Z,65.70
2018-04-14T09:19:35.816Z,65.90
2018-04-14T09:20:35.810Z,66.90
2018-04-14T09:21:35.797Z,69.50
2018-04-14T09:22:35.798Z,70.70
2018-04-14T09:23:35.809Z,67.80
2018-04-14T09:24:35.795Z,69.70
2018-04-14T09:25:35.812Z,70.90
2018-04-14T09:26:35.813Z,68.10
2018-04-14T09:27:35.789Z,67.40
2018-04-14T09:28:35.800Z,67.70
2018-04-14T09:29:35.991Z,68.70
2018-04-14T09:30:35.786Z,68.60
2018-04-14T09:31:35.794Z,67.40
2018-04-14T09:32:35.779Z,65.30
2018-04-14T09:33:35.793Z,67.10
2018-04-14T09:34:35.775Z,67.40
2018-04-14T09:35:35.777Z,66.80
2018-04-14T09:36:36.004Z,68.60
2018-04-14T09:37:35.775Z,68.30
2018-04-14T09:38:35.773Z,66.00
2018-04-14T09:39:35.985Z,65.50
2018-04-14T09:40:35.779Z,68.60
2018-04-14T09:41:35.784Z,66.90
2018-04-14T09:42:35.776Z,63.90
2018-04-14T09:43:35.984Z,66.10
2018-04-14T09:44:35.765Z,66.90
2018-04-14T09:45:35.777Z,66.90
2018-04-14T09:46:35.774Z,63.50
2018-04-14T09:47:35.982Z,62.20
2018-04-14T09:48:35.758Z,61.60
2018-04-14T09:49:35.975Z,61.70
2018-04-14T09:50:35.756Z,63.60
2018-04-14T09:51:35.754Z,65.70
2018-04-14T09:52:35.768Z,62.00
2018-04-14T09:53:35.756Z,60.50
2018-04-14T09:54:35.764Z,63.60
2018-04-14T09:55:35.774Z,65.20
2018-04-14T09:56:35.762Z,65.40
2018-04-14T09:57:35.752Z,68.20
2018-04-14T09:58:35.744Z,65.50
2018-04-14T09:59:35.758Z,65.20
2018-04-14T10:00:35.745Z,65.10
2018-04-14T10:01:35.745Z,64.60
2018-04-14T10:02:35.741Z,62.40
2018-04-14T10:03:35.754Z,62.40
2018-04-14T10:04:35.750Z,62.60
2018-04-14T10:05:35.805Z,62.30
2018-04-14T10:06:35.953Z,62.50
2018-04-14T10:07:35.940Z,64.40
2018-04-14T10:08:35.745Z,61.20
2018-04-14T10:09:35.734Z,61.10
2018-04-14T10:10:35.754Z,60.50
2018-04-14T10:11:35.736Z,60.60
2018-04-14T10:12:35.730Z,62.40
2018-04-14T10:13:35.742Z,62.40
2018-04-14T10:14:35.933Z,64.20
2018-04-14T10:15:35.728Z,63.40
2018-04-14T10:16:35.943Z,63.50
2018-04-14T10:17:35.725Z,66.00
2018-04-14T10:18:35.723Z,62.50
2018-04-14T10:19:35.734Z,65.20
2018-04-14T10:20:35.722Z,64.60
2018-04-14T10:21:35.927Z,66.10
2018-04-14T10:22:35.719Z,65.80
2018-04-14T10:23:35.935Z,67.80
2018-04-14T10:24:35.716Z,65.90
2018-04-14T10:25:35.720Z,68.40
2018-04-14T10:26:35.736Z,68.20
2018-04-14T10:27:35.744Z,67.30
2018-04-14T10:28:35.715Z,69.30
2018-04-14T10:29:35.731Z,68.50
2018-04-14T10:30:35.720Z,66.60
2018-04-14T10:31:35.708Z,65.80
2018-04-14T10:32:35.708Z,66.70
2018-04-14T10:33:35.711Z,68.50
2018-04-14T10:34:35.705Z,70.30
2018-04-14T10:35:35.713Z,67.40
2018-04-14T10:36:35.705Z,67.90
2018-04-14T10:37:35.715Z,67.20
2018-04-14T10:38:35.716Z,70.00
2018-04-14T10:39:35.701Z,67.50
2018-04-14T10:40:35.712Z,65.80
2018-04-14T10:41:35.699Z,64.20
2018-04-14T10:42:35.706Z,64.70
2018-04-14T10:43:35.699Z,65.40
2018-04-14T10:44:35.720Z,67.30
2018-04-14T10:45:35.708Z,68.00
2018-04-14T10:46:35.727Z,67.00
2018-04-14T10:47:35.707Z,67.20
2018-04-14T10:48:35.696Z,66.90
2018-04-14T10:49:35.693Z,66.10
2018-04-14T10:50:35.893Z,65.70
2018-04-14T10:51:35.687Z,62.50
2018-04-14T10:52:35.687Z,63.90
2018-04-14T10:53:35.687Z,66.90
2018-04-14T10:54:35.687Z,66.80
2018-04-14T10:55:35.686Z,64.20
2018-04-14T10:56:35.888Z,64.70
2018-04-14T10:57:35.687Z,63.80
2018-04-14T10:58:35.680Z,64.20
2018-04-14T10:59:35.686Z,63.60
2018-04-14T11:00:35.679Z,63.60
2018-04-14T11:01:35.694Z,64.10
2018-04-14T11:02:35.688Z,62.00
2018-04-14T11:03:35.680Z,63.00
2018-04-14T11:04:35.878Z,63.60
2018-04-14T11:05:35.674Z,64.10
2018-04-14T11:06:35.673Z,63.70
2018-04-14T11:07:35.895Z,61.70
2018-04-14T11:08:35.682Z,65.10
2018-04-14T11:09:35.687Z,65.30
2018-04-14T11:10:35.670Z,63.40
2018-04-14T11:11:35.670Z,62.90
2018-04-14T11:12:35.667Z,63.40
2018-04-14T11:13:35.672Z,63.40
2018-04-14T11:14:35.683Z,63.40
2018-04-14T11:15:35.665Z,60.40
2018-04-14T11:16:35.662Z,61.40
2018-04-14T11:17:35.661Z,59.60
2018-04-14T11:18:35.661Z,58.90
2018-04-14T11:19:35.672Z,58.60
2018-04-14T11:20:35.687Z,57.20
2018-04-14T11:21:35.660Z,60.50
2018-04-14T11:22:35.664Z,62.20
2018-04-14T11:23:35.654Z,58.30
2018-04-14T11:24:35.666Z,57.80
2018-04-14T11:25:35.653Z,57.80
2018-04-14T11:26:35.651Z,58.60
2018-04-14T11:27:35.648Z,57.00
2018-04-14T11:28:35.852Z,57.90
2018-04-14T11:29:35.648Z,60.10
2018-04-14T11:30:35.645Z,59.00
2018-04-14T11:31:35.645Z,57.10
2018-04-14T11:32:35.643Z,57.40
2018-04-14T11:33:35.641Z,59.00
2018-04-14T11:34:35.655Z,58.70
2018-04-14T11:35:35.854Z,56.40
2018-04-14T11:36:35.649Z,54.60
2018-04-14T11:37:35.660Z,55.00
2018-04-14T11:38:35.655Z,57.60
2018-04-14T11:39:35.646Z,56.50
2018-04-14T11:40:35.633Z,57.10
2018-04-14T11:41:35.652Z,56.60
2018-04-14T11:42:35.638Z,56.20
2018-04-14T11:43:35.831Z,55.50
2018-04-14T11:44:35.628Z,56.60
2018-04-14T11:45:35.626Z,54.60
2018-04-14T11:46:35.634Z,56.00
2018-04-14T11:47:35.624Z,56.20
2018-04-14T11:48:35.826Z,56.60
2018-04-14T11:49:35.621Z,55.80
2018-04-14T11:50:35.639Z,55.50
2018-04-14T11:51:35.620Z,55.40
2018-04-14T11:52:35.627Z,52.30
2018-04-14T11:53:35.832Z,50.00
2018-04-14T11:54:35.616Z,47.70
2018-04-14T11:55:35.625Z,49.10
2018-04-14T11:56:35.626Z,45.10
2018-04-14T11:57:35.616Z,45.30
2018-04-14T11:58:35.610Z,47.10
2018-04-14T11:59:35.624Z,45.50
2018-04-14T12:00:35.608Z,45.10
2018-04-14T12:01:35.811Z,47.30
2018-04-14T12:02:35.608Z,46.20
2018-04-14T12:03:35.616Z,46.80
2018-04-14T12:04:35.604Z,47.50
2018-04-14T12:05:35.818Z,48.30
2018-04-14T12:06:35.605Z,49.50
2018-04-14T12:07:35.617Z,47.50
2018-04-14T12:08:35.817Z,47.60
2018-04-14T12:09:35.599Z,47.80
2018-04-14T12:10:35.600Z,48.70
2018-04-14T12:11:35.597Z,46.80
2018-04-14T12:12:35.598Z,47.50
2018-04-14T12:13:35.607Z,44.60
2018-04-14T12:14:35.611Z,46.40
2018-04-14T12:15:35.606Z,46.50
2018-04-14T12:16:35.603Z,45.70
2018-04-14T12:17:35.598Z,45.40
2018-04-14T12:18:35.591Z,44.20
2018-04-14T12:19:35.590Z,44.70
2018-04-14T12:20:35.604Z,43.50
2018-04-14T12:21:35.590Z,43.20
2018-04-14T12:22:35.630Z,43.10
2018-04-14T12:23:35.599Z,43.60
2018-04-14T12:24:35.790Z,44.50
2018-04-14T12:25:35.586Z,42.90
2018-04-14T12:26:35.806Z,43.60
2018-04-14T12:27:35.608Z,43.10
2018-04-14T12:28:35.592Z,46.10
2018-04-14T12:29:35.595Z,45.80
2018-04-14T12:30:35.580Z,45.80
2018-04-14T12:31:35.582Z,46.70
2018-04-14T12:32:35.586Z,45.50
2018-04-14T12:33:35.583Z,46.70
2018-04-14T12:34:35.847Z,48.00
2018-04-14T12:35:35.795Z,46.30
2018-04-14T12:36:35.780Z,46.10
2018-04-14T12:37:35.576Z,44.00
2018-04-14T12:38:35.587Z,40.30
2018-04-14T12:39:35.572Z,42.10
2018-04-14T12:40:35.587Z,41.80
2018-04-14T12:41:35.581Z,40.40
2018-04-14T12:42:35.786Z,41.70
2018-04-14T12:43:35.777Z,39.60
2018-04-14T12:44:35.595Z,39.50
2018-04-14T12:45:35.577Z,36.70
2018-04-14T12:46:35.570Z,36.50
2018-04-14T12:47:35.566Z,37.70
2018-04-14T12:48:35.567Z,39.10
2018-04-14T12:49:35.590Z,43.20
2018-04-14T12:50:35.767Z,42.80
2018-04-14T12:51:35.560Z,41.30
2018-04-14T12:52:35.571Z,43.10
2018-04-14T12:53:35.577Z,41.40
2018-04-14T12:54:35.560Z,40.90
2018-04-14T12:55:35.567Z,41.00